Time;durP1;ratioP1;P1;durP2;ratioP2;P2;SDS_P1;SDS_P2;PMS_P1;PMS_P2;Temp;Humidity;BMP_temperature;BMP_pressure;BME280_temperature;BME280_humidity;BME280_pressure;Samples;Min_cycle;Max_cycle;Signal;HPM_P1;HPM_P2
2022/03/26 00:00:18;;;;;;;35.03;21.67;;;10.30;23.80;;;;;;4993525;28;20229;-74
2022/03/26 00:02:46;;;;;;;33.53;21.20;;;10.20;24.10;;;;;;5002344;28;20247;-74
2022/03/26 00:05:13;;;;;;;31.50;19.95;;;10.20;24.20;;;;;;4993578;28;20292;-73
2022/03/26 00:07:40;;;;;;;37.45;20.70;;;10.10;24.40;;;;;;4992118;28;20240;-74
2022/03/26 00:10:08;;;;;;;31.23;19.63;;;10.10;24.80;;;;;;4993403;28;20324;-74
2022/03/26 00:12:35;;;;;;;32.72;20.33;;;10.10;24.50;;;;;;4993250;28;20695;-74
2022/03/26 00:15:02;;;;;;;31.85;18.50;;;10.40;23.10;;;;;;4996688;28;20212;-74
2022/03/26 00:17:30;;;;;;;34.13;20.35;;;10.40;23.50;;;;;;4996986;28;20659;-74
2022/03/26 00:19:57;;;;;;;35.95;20.98;;;10.30;23.60;;;;;;4996935;28;20319;-74
2022/03/26 00:22:24;;;;;;;32.15;20.05;;;10.30;23.60;;;;;;4997045;28;20292;-74
2022/03/26 00:24:51;;;;;;;35.42;20.52;;;10.30;23.80;;;;;;4997794;28;20244;-73
2022/03/26 00:27:18;;;;;;;36.15;20.80;;;10.30;23.80;;;;;;4998251;28;20235;-73
2022/03/26 00:29:46;;;;;;;33.42;19.92;;;10.30;23.90;;;;;;4997150;28;20263;-74
2022/03/26 00:32:13;;;;;;;32.42;19.50;;;10.20;24.10;;;;;;4997528;28;20204;-73
2022/03/26 00:34:41;;;;;;;30.90;19.25;;;10.00;24.30;;;;;;4997016;28;20299;-74
2022/03/26 00:37:08;;;;;;;36.90;19.98;;;9.90;25.20;;;;;;4997125;28;20213;-74
2022/03/26 00:39:36;;;;;;;31.25;19.45;;;9.70;25.50;;;;;;4996900;28;20257;-74
2022/03/26 00:42:03;;;;;;;32.25;18.60;;;9.70;25.80;;;;;;5000868;28;20688;-74
2022/03/26 00:44:30;;;;;;;33.67;19.50;;;9.50;25.90;;;;;;5000203;28;20661;-74
2022/03/26 00:46:57;;;;;;;34.42;19.80;;;9.40;26.10;;;;;;5001381;28;20211;-74
2022/03/26 00:49:24;;;;;;;33.53;20.77;;;9.30;26.50;;;;;;4998557;28;20233;-75
2022/03/26 00:51:52;;;;;;;37.05;21.35;;;9.10;27.00;;;;;;4996716;28;20215;-74
2022/03/26 00:54:19;;;;;;;34.15;19.95;;;9.00;27.50;;;;;;4996484;28;20213;-74
2022/03/26 00:56:46;;;;;;;31.38;19.15;;;8.80;27.70;;;;;;4996809;28;20680;-74
2022/03/26 00:59:13;;;;;;;28.95;18.90;;;8.70;28.10;;;;;;4995615;28;20208;-74
2022/03/26 01:01:40;;;;;;;31.63;19.30;;;8.60;28.30;;;;;;4995924;28;20242;-74
2022/03/26 01:04:07;;;;;;;32.42;19.13;;;8.50;28.60;;;;;;4995967;28;20205;-74
2022/03/26 01:06:35;;;;;;;32.92;19.00;;;8.40;29.10;;;;;;4996428;28;20315;-73
2022/03/26 01:09:04;;;;;;;32.42;18.52;;;8.40;29.40;;;;;;4995808;28;20224;-74
2022/03/26 01:11:30;;;;;;;31.73;18.27;;;8.40;29.40;;;;;;4996254;28;20208;-74
2022/03/26 01:13:57;;;;;;;35.90;19.58;;;8.50;28.40;;;;;;4996162;28;20321;-74
2022/03/26 01:16:25;;;;;;;29.48;18.33;;;8.60;28.40;;;;;;4995921;28;20208;-74
2022/03/26 01:18:53;;;;;;;34.25;18.27;;;8.60;28.90;;;;;;4995241;28;20549;-73
2022/03/26 01:21:21;;;;;;;32.15;19.80;;;8.60;28.40;;;;;;4995478;28;20310;-73
2022/03/26 01:23:48;;;;;;;31.02;18.02;;;8.50;28.30;;;;;;4996423;28;20208;-73
2022/03/26 01:26:16;;;;;;;31.73;18.67;;;8.70;28.00;;;;;;4994952;28;20656;-73
2022/03/26 01:28:44;;;;;;;30.67;18.17;;;8.60;28.20;;;;;;4995969;28;20288;-74
2022/03/26 01:31:11;;;;;;;31.73;19.35;;;8.60;28.30;;;;;;5003314;28;20220;-73
2022/03/26 01:33:41;;;;;;;31.35;17.63;;;8.60;28.30;;;;;;5008956;28;20276;-74
2022/03/26 01:36:08;;;;;;;44.10;17.90;;;8.60;28.30;;;;;;5008764;28;20204;-73
2022/03/26 01:38:35;;;;;;;31.00;18.38;;;8.60;28.30;;;;;;5007271;28;20288;-74
2022/03/26 01:41:02;;;;;;;33.45;19.02;;;8.50;28.30;;;;;;5008893;28;20232;-74
2022/03/26 01:43:30;;;;;;;30.90;18.42;;;8.60;28.60;;;;;;4995794;28;20569;-73
2022/03/26 01:45:57;;;;;;;35.10;18.58;;;8.50;28.80;;;;;;4995826;28;20295;-74
2022/03/26 01:48:24;;;;;;;31.75;18.77;;;8.60;28.30;;;;;;4995757;28;20291;-74
2022/03/26 01:50:51;;;;;;;33.35;18.13;;;8.60;28.50;;;;;;4995819;28;20244;-74
2022/03/26 01:53:18;;;;;;;30.92;19.33;;;8.40;29.00;;;;;;4995301;28;20243;-73
2022/03/26 01:55:45;;;;;;;33.65;18.77;;;8.30;29.30;;;;;;4995745;28;20222;-74
2022/03/26 01:58:12;;;;;;;32.22;19.42;;;8.20;29.20;;;;;;4995698;28;20204;-73
2022/03/26 02:00:41;;;;;;;31.30;19.25;;;8.10;29.10;;;;;;4995124;28;20316;-73
2022/03/26 02:03:09;;;;;;;34.08;17.77;;;8.10;29.20;;;;;;4995047;28;20320;-74
2022/03/26 02:05:36;;;;;;;33.58;19.15;;;8.00;29.10;;;;;;4996371;28;20209;-73
2022/03/26 02:08:04;;;;;;;30.60;18.35;;;8.00;29.10;;;;;;4995727;28;20281;-73
2022/03/26 02:10:31;;;;;;;30.25;18.30;;;7.90;29.00;;;;;;4995145;28;20854;-75
2022/03/26 02:12:59;;;;;;;33.05;18.60;;;7.90;29.40;;;;;;4995539;28;20287;-73
2022/03/26 02:15:27;;;;;;;37.47;18.60;;;7.90;30.00;;;;;;4996217;28;20267;-73
2022/03/26 02:17:55;;;;;;;31.30;17.55;;;7.80;29.50;;;;;;4997913;28;20232;-73
2022/03/26 02:20:24;;;;;;;30.35;17.65;;;7.80;29.50;;;;;;5014247;28;20224;-74
2022/03/26 02:22:51;;;;;;;28.58;16.85;;;8.00;29.10;;;;;;5014696;28;20233;-73
2022/03/26 02:25:18;;;;;;;33.63;18.02;;;8.00;29.10;;;;;;5013481;28;20236;-72
2022/03/26 02:27:45;;;;;;;30.05;17.63;;;8.10;29.10;;;;;;5015625;28;20215;-74
2022/03/26 02:30:12;;;;;;;31.60;17.58;;;8.10;29.10;;;;;;5013443;28;20319;-72
2022/03/26 02:32:39;;;;;;;31.30;18.05;;;8.00;29.10;;;;;;5011749;28;20206;-72
2022/03/26 02:35:07;;;;;;;29.70;17.20;;;8.00;29.10;;;;;;5007645;28;20208;-73
2022/03/26 02:37:36;;;;;;;26.83;16.25;;;8.00;29.10;;;;;;4995488;28;20201;-73
2022/03/26 02:40:06;;;;;;;29.60;17.05;;;8.00;29.10;;;;;;4995114;28;20232;-74
2022/03/26 02:42:34;;;;;;;33.33;18.20;;;8.00;29.10;;;;;;4994722;28;20614;-73
2022/03/26 02:45:02;;;;;;;33.40;16.30;;;8.00;29.10;;;;;;4994842;28;20220;-74
2022/03/26 02:47:29;;;;;;;27.90;16.42;;;7.90;29.00;;;;;;4994826;28;20667;-74
2022/03/26 02:49:56;;;;;;;31.67;16.98;;;7.90;29.00;;;;;;4994402;28;20247;-73
2022/03/26 02:52:23;;;;;;;29.08;17.40;;;7.80;29.10;;;;;;4994954;28;20215;-73
2022/03/26 02:54:52;;;;;;;30.92;18.88;;;7.70;29.30;;;;;;4994548;28;20223;-74
2022/03/26 02:57:19;;;;;;;30.80;17.90;;;7.70;29.80;;;;;;5002269;28;20215;-73
2022/03/26 02:59:46;;;;;;;31.58;17.40;;;7.70;30.00;;;;;;4996393;28;20248;-74
2022/03/26 03:02:13;;;;;;;31.00;17.65;;;7.60;30.00;;;;;;5004009;28;20224;-73
2022/03/26 03:04:40;;;;;;;28.45;16.77;;;7.50;30.10;;;;;;5003710;28;20212;-76
2022/03/26 03:07:07;;;;;;;32.28;17.33;;;7.50;30.60;;;;;;5010168;28;20218;-73
2022/03/26 03:09:34;;;;;;;30.05;18.13;;;7.40;30.60;;;;;;5007566;28;20270;-73
2022/03/26 03:12:02;;;;;;;28.70;16.40;;;7.30;30.90;;;;;;4997046;28;20299;-73
2022/03/26 03:14:29;;;;;;;26.00;17.25;;;7.20;30.80;;;;;;4993591;28;20303;-74
2022/03/26 03:16:56;;;;;;;27.42;15.85;;;7.10;31.10;;;;;;4993564;28;20236;-73
2022/03/26 03:19:22;;;;;;;31.50;17.33;;;7.10;31.40;;;;;;4993402;28;20232;-72
2022/03/26 03:21:50;;;;;;;30.05;17.27;;;7.10;31.70;;;;;;4993430;28;20302;-74
2022/03/26 03:24:17;;;;;;;29.95;17.35;;;6.90;32.00;;;;;;4993377;28;20738;-74
2022/03/26 03:26:44;;;;;;;38.70;18.60;;;6.90;32.70;;;;;;4994284;28;20232;-74
2022/03/26 03:29:12;;;;;;;34.17;16.55;;;6.80;32.70;;;;;;4993199;28;20644;-73
2022/03/26 03:31:44;;;;;;;29.17;17.00;;;6.70;33.00;;;;;;4993778;28;20208;-73
2022/03/26 03:34:11;;;;;;;32.53;16.45;;;6.60;33.00;;;;;;4993991;28;20193;-74
2022/03/26 03:36:38;;;;;;;33.40;16.52;;;6.60;33.90;;;;;;4994082;28;20227;-74
2022/03/26 03:39:05;;;;;;;30.17;17.92;;;6.50;33.50;;;;;;4993368;28;20638;-73
2022/03/26 03:41:32;;;;;;;31.45;17.75;;;6.50;33.60;;;;;;4993761;28;20693;-74
2022/03/26 03:44:02;;;;;;;33.80;18.33;;;6.50;33.90;;;;;;4993867;28;20250;-73
2022/03/26 03:46:31;;;;;;;30.90;18.27;;;6.40;34.00;;;;;;4993734;28;20287;-74
2022/03/26 03:48:58;;;;;;;34.15;18.02;;;6.40;34.10;;;;;;4994221;28;20206;-73
2022/03/26 03:51:25;;;;;;;30.77;17.55;;;6.30;34.40;;;;;;4994276;28;20477;-74
2022/03/26 03:53:51;;;;;;;33.80;18.10;;;6.30;35.00;;;;;;4994135;28;20208;-73
2022/03/26 03:56:18;;;;;;;28.70;17.60;;;6.30;35.00;;;;;;4995019;28;20215;-74
2022/03/26 03:58:45;;;;;;;31.27;17.95;;;6.20;35.30;;;;;;4995094;28;20204;-73
2022/03/26 04:01:12;;;;;;;31.25;17.58;;;6.10;35.80;;;;;;4998770;28;20248;-73
2022/03/26 04:03:40;;;;;;;29.05;18.13;;;6.10;36.30;;;;;;5000989;28;20224;-74
2022/03/26 04:06:07;;;;;;;29.95;17.35;;;6.00;37.00;;;;;;5002355;28;20216;-74
2022/03/26 04:08:34;;;;;;;26.90;17.42;;;6.00;37.00;;;;;;5002868;28;20243;-74
2022/03/26 04:11:01;;;;;;;33.90;17.35;;;5.90;36.90;;;;;;5003576;28;20651;-74
2022/03/26 04:13:28;;;;;;;33.90;18.10;;;5.80;36.80;;;;;;5006377;28;20204;-74
2022/03/26 04:15:55;;;;;;;31.58;18.38;;;5.70;36.80;;;;;;5014345;28;20203;-73
2022/03/26 04:18:23;;;;;;;29.33;17.60;;;5.70;36.80;;;;;;5011279;28;20239;-73
2022/03/26 04:20:52;;;;;;;30.50;17.00;;;5.70;36.80;;;;;;5005119;28;20296;-73
2022/03/26 04:23:19;;;;;;;31.80;17.60;;;5.60;37.30;;;;;;4997437;28;20259;-73
2022/03/26 04:25:46;;;;;;;35.03;18.52;;;5.50;37.60;;;;;;4994732;28;20739;-73
2022/03/26 04:28:13;;;;;;;36.03;19.52;;;5.50;38.10;;;;;;4994855;28;20295;-74
2022/03/26 04:30:40;;;;;;;31.40;18.58;;;5.50;38.40;;;;;;4993571;28;20225;-74
2022/03/26 04:33:07;;;;;;;29.25;17.67;;;5.50;38.40;;;;;;4994774;28;20231;-74
2022/03/26 04:35:34;;;;;;;34.45;18.25;;;5.40;38.60;;;;;;4993440;28;20308;-73
2022/03/26 04:38:03;;;;;;;32.65;19.05;;;5.30;39.00;;;;;;4992798;28;20636;-74
2022/03/26 04:40:30;;;;;;;28.38;17.10;;;5.30;39.40;;;;;;4993402;28;20224;-74
2022/03/26 04:42:57;;;;;;;30.50;18.17;;;5.30;39.40;;;;;;4993553;28;20252;-73
2022/03/26 04:45:24;;;;;;;33.35;17.45;;;5.30;39.60;;;;;;4993073;28;20212;-73
2022/03/26 04:47:51;;;;;;;37.88;17.13;;;5.20;39.90;;;;;;4993281;28;20204;-73
2022/03/26 04:50:17;;;;;;;31.90;17.85;;;5.20;40.30;;;;;;4993591;28;20300;-73
2022/03/26 04:52:44;;;;;;;33.00;18.05;;;5.10;40.40;;;;;;4993763;28;20201;-74
2022/03/26 04:55:13;;;;;;;35.70;18.92;;;5.00;40.80;;;;;;4993299;28;20252;-73
2022/03/26 04:57:41;;;;;;;30.92;18.23;;;4.90;40.90;;;;;;4993333;28;20209;-73
2022/03/26 05:00:10;;;;;;;31.48;17.80;;;4.90;41.00;;;;;;4994071;28;20240;-73
2022/03/26 05:02:39;;;;;;;35.78;17.70;;;4.90;41.30;;;;;;4999876;28;20625;-73
2022/03/26 05:05:06;;;;;;;40.78;20.35;;;4.90;41.60;;;;;;5009833;28;20200;-73
2022/03/26 05:07:49;;;;;;;30.88;17.63;;;4.80;41.80;;;;;;5011823;28;20212;-72
2022/03/26 05:10:19;;;;;;;35.60;19.27;;;4.80;42.20;;;;;;5009917;28;20234;-73
2022/03/26 05:12:47;;;;;;;30.50;17.48;;;4.80;42.50;;;;;;5006602;28;20212;-74
2022/03/26 05:15:15;;;;;;;31.90;18.25;;;4.80;42.20;;;;;;4999727;28;20224;-74
2022/03/26 05:17:42;;;;;;;32.35;18.77;;;4.80;42.80;;;;;;4997968;28;20255;-73
2022/03/26 05:20:12;;;;;;;30.90;17.85;;;4.70;42.70;;;;;;4998236;28;20319;-74
2022/03/26 05:22:40;;;;;;;31.20;17.40;;;4.70;42.80;;;;;;4980628;28;20221;-74
2022/03/26 05:25:08;;;;;;;33.42;17.65;;;4.70;42.70;;;;;;4980525;28;20217;-73
2022/03/26 05:27:36;;;;;;;37.80;19.52;;;4.70;43.40;;;;;;5000672;28;20352;-74
2022/03/26 05:30:04;;;;;;;28.08;17.35;;;4.70;43.20;;;;;;5005041;28;20328;-73
2022/03/26 05:32:31;;;;;;;31.00;18.23;;;4.60;43.60;;;;;;5005401;28;20204;-73
2022/03/26 05:34:58;;;;;;;32.47;18.20;;;4.60;43.60;;;;;;5009344;28;20208;-73
2022/03/26 05:37:24;;;;;;;31.88;17.58;;;4.70;43.40;;;;;;5005968;28;20649;-74
2022/03/26 05:39:51;;;;;;;33.03;18.02;;;4.80;43.70;;;;;;4998481;28;20341;-74
2022/03/26 05:42:19;;;;;;;33.67;17.27;;;4.90;43.10;;;;;;4997287;28;20299;-73
2022/03/26 05:44:47;;;;;;;34.75;18.90;;;4.90;42.90;;;;;;4996992;28;20224;-74
2022/03/26 05:47:14;;;;;;;32.13;17.08;;;5.00;42.70;;;;;;4998530;28;20204;-74
2022/03/26 05:49:41;;;;;;;27.70;16.85;;;5.10;42.10;;;;;;5001587;28;20270;-74
2022/03/26 05:52:08;;;;;;;34.78;17.83;;;5.10;41.70;;;;;;4997142;28;20212;-74
2022/03/26 05:54:35;;;;;;;30.77;17.10;;;5.10;41.40;;;;;;4997460;28;20219;-74
2022/03/26 05:57:02;;;;;;;31.10;16.38;;;5.20;41.20;;;;;;4997169;28;20230;-74
2022/03/26 05:59:31;;;;;;;32.45;17.20;;;5.20;41.20;;;;;;4996497;28;20228;-74
2022/03/26 06:01:59;;;;;;;35.65;18.15;;;5.30;41.30;;;;;;4996056;28;20212;-73
2022/03/26 06:04:28;;;;;;;31.10;17.70;;;5.30;41.30;;;;;;4995780;28;20232;-73
2022/03/26 06:06:56;;;;;;;28.48;17.08;;;5.40;42.00;;;;;;4995673;28;20289;-74
2022/03/26 06:09:23;;;;;;;32.55;16.88;;;5.40;40.70;;;;;;4996315;28;20516;-74
2022/03/26 06:11:50;;;;;;;34.53;18.30;;;5.40;40.80;;;;;;4996802;28;20680;-73
2022/03/26 06:14:18;;;;;;;29.15;16.48;;;5.40;40.80;;;;;;5004955;28;20272;-74
2022/03/26 06:16:45;;;;;;;30.88;17.60;;;5.40;40.80;;;;;;5001100;28;20208;-72
2022/03/26 06:19:14;;;;;;;38.40;17.23;;;5.50;40.70;;;;;;4997229;28;20216;-74
2022/03/26 06:21:41;;;;;;;29.33;16.45;;;5.50;40.90;;;;;;4997863;28;20212;-74
2022/03/26 06:24:08;;;;;;;38.00;17.88;;;5.50;41.30;;;;;;4996744;28;20224;-73
2022/03/26 06:26:37;;;;;;;31.23;16.20;;;5.50;41.50;;;;;;4977578;28;20212;-73
2022/03/26 06:29:04;;;;;;;30.73;16.85;;;5.50;41.00;;;;;;4995960;28;20295;-73
2022/03/26 06:31:31;;;;;;;30.48;17.10;;;5.50;41.00;;;;;;4996817;28;20213;-74
2022/03/26 06:33:58;;;;;;;28.23;17.25;;;5.60;41.00;;;;;;5002811;28;20212;-74
2022/03/26 06:36:27;;;;;;;30.50;16.73;;;5.70;40.80;;;;;;5005462;28;20208;-73
2022/03/26 06:38:54;;;;;;;36.22;17.70;;;5.80;40.30;;;;;;5002047;28;20223;-75
2022/03/26 06:41:20;;;;;;;25.67;15.43;;;5.90;40.40;;;;;;5010660;28;20287;-72
2022/03/26 06:43:48;;;;;;;28.83;16.20;;;5.90;40.60;;;;;;5012827;28;20227;-72
2022/03/26 06:46:15;;;;;;;26.63;16.15;;;5.90;40.90;;;;;;5007136;28;20227;-73
2022/03/26 06:48:42;;;;;;;25.60;15.48;;;6.10;39.80;;;;;;5011431;28;20212;-74
2022/03/26 06:51:09;;;;;;;27.45;16.10;;;6.10;39.50;;;;;;4997706;28;20243;-74
2022/03/26 06:53:37;;;;;;;30.02;15.98;;;6.30;39.20;;;;;;4995458;28;20203;-74
2022/03/26 06:56:06;;;;;;;27.65;16.75;;;6.50;38.70;;;;;;4995666;28;20299;-73
2022/03/26 06:58:33;;;;;;;26.33;16.00;;;6.60;37.90;;;;;;4995263;28;20576;-75
2022/03/26 07:01:00;;;;;;;26.60;15.85;;;6.80;37.70;;;;;;4998643;28;20248;-73
2022/03/26 07:03:28;;;;;;;31.13;17.52;;;6.80;37.70;;;;;;4995814;28;20311;-73
2022/03/26 07:05:55;;;;;;;30.60;16.10;;;6.90;37.80;;;;;;4995580;28;20204;-74
2022/03/26 07:08:23;;;;;;;29.67;16.33;;;6.90;37.80;;;;;;4994387;28;20223;-74
2022/03/26 07:10:51;;;;;;;30.38;16.45;;;7.10;36.40;;;;;;4994578;28;20223;-74
2022/03/26 07:13:18;;;;;;;29.58;16.40;;;7.20;36.10;;;;;;4994706;28;20255;-73
2022/03/26 07:15:45;;;;;;;31.75;16.25;;;7.30;35.80;;;;;;4994619;28;20291;-74
2022/03/26 07:18:12;;;;;;;32.67;16.83;;;7.40;35.30;;;;;;4995178;28;20291;-73
2022/03/26 07:20:39;;;;;;;27.98;16.55;;;7.50;35.30;;;;;;4995619;28;20229;-74
2022/03/26 07:23:06;;;;;;;27.52;16.08;;;7.70;34.20;;;;;;4993389;28;20300;-75
2022/03/26 07:25:33;;;;;;;29.77;16.77;;;7.90;33.30;;;;;;4994822;28;20319;-73
2022/03/26 07:28:01;;;;;;;27.80;16.73;;;8.00;33.10;;;;;;4994421;28;20216;-73
2022/03/26 07:30:29;;;;;;;26.13;15.10;;;8.10;32.20;;;;;;4994619;28;20228;-73
2022/03/26 07:32:56;;;;;;;31.83;15.95;;;8.20;32.50;;;;;;4995103;28;20212;-73
2022/03/26 07:35:24;;;;;;;24.92;15.02;;;8.40;31.90;;;;;;4999548;28;20205;-73
2022/03/26 07:37:50;;;;;;;26.60;15.75;;;8.50;31.00;;;;;;5001850;28;20204;-74
2022/03/26 07:40:17;;;;;;;28.10;16.88;;;8.50;31.10;;;;;;5003679;28;20247;-73
2022/03/26 07:42:44;;;;;;;24.85;15.20;;;8.70;30.00;;;;;;5007161;28;20256;-73
2022/03/26 07:45:12;;;;;;;26.05;15.27;;;8.80;29.60;;;;;;5010215;28;20232;-73
2022/03/26 07:47:39;;;;;;;32.72;16.92;;;8.90;29.70;;;;;;5009810;28;20268;-72
2022/03/26 07:50:08;;;;;;;23.92;14.93;;;9.10;29.80;;;;;;5007231;28;20382;-73
2022/03/26 07:52:36;;;;;;;23.13;14.93;;;9.20;29.90;;;;;;4996580;28;20295;-73
2022/03/26 07:55:03;;;;;;;34.90;17.65;;;9.20;29.90;;;;;;4995664;28;20223;-73
2022/03/26 07:57:30;;;;;;;28.40;15.40;;;9.30;30.00;;;;;;4995821;28;20208;-73
2022/03/26 07:59:57;;;;;;;29.85;16.73;;;9.50;29.50;;;;;;4993734;28;20602;-73
2022/03/26 08:02:25;;;;;;;27.25;16.55;;;9.60;29.30;;;;;;4995009;28;20208;-74
2022/03/26 08:04:52;;;;;;;28.40;16.70;;;9.80;28.60;;;;;;4994356;28;20228;-73
2022/03/26 08:07:21;;;;;;;29.70;16.23;;;9.80;28.60;;;;;;4994924;28;20259;-74
2022/03/26 08:09:48;;;;;;;26.45;16.08;;;9.80;28.10;;;;;;4994224;28;20240;-74
2022/03/26 08:12:15;;;;;;;34.97;17.05;;;9.80;28.40;;;;;;4995149;28;20216;-73
2022/03/26 08:14:42;;;;;;;28.25;16.02;;;10.00;27.50;;;;;;4994410;28;20205;-72
2022/03/26 08:17:09;;;;;;;24.48;16.02;;;9.90;28.20;;;;;;4993634;28;20577;-73
2022/03/26 08:19:37;;;;;;;29.20;16.05;;;10.00;27.50;;;;;;4993541;28;20247;-73
2022/03/26 08:22:05;;;;;;;24.88;16.38;;;10.10;27.60;;;;;;4994932;28;20244;-71
2022/03/26 08:24:31;;;;;;;25.30;15.85;;;10.20;27.20;;;;;;4994601;28;20304;-74
2022/03/26 08:26:59;;;;;;;27.63;17.02;;;10.40;27.20;;;;;;4995505;28;20288;-73
2022/03/26 08:29:25;;;;;;;25.13;15.77;;;10.50;26.80;;;;;;4997697;28;20268;-73
2022/03/26 08:31:52;;;;;;;30.75;17.95;;;10.40;27.00;;;;;;5001033;28;20220;-74
2022/03/26 08:34:20;;;;;;;26.73;16.15;;;10.50;26.90;;;;;;4999659;28;20641;-73
2022/03/26 08:36:49;;;;;;;29.55;16.25;;;10.70;26.80;;;;;;4999781;28;20224;-72
2022/03/26 08:39:16;;;;;;;28.40;16.27;;;11.00;26.30;;;;;;4997687;28;20751;-73
2022/03/26 08:41:43;;;;;;;32.53;16.15;;;11.10;26.00;;;;;;4998580;28;20235;-74
2022/03/26 08:44:10;;;;;;;26.25;15.48;;;11.20;26.00;;;;;;4997599;28;20282;-72
2022/03/26 08:46:37;;;;;;;25.25;16.40;;;11.30;26.00;;;;;;4997075;28;20695;-73
2022/03/26 08:49:04;;;;;;;30.95;16.95;;;11.40;25.60;;;;;;4997011;28;20302;-74
2022/03/26 08:51:31;;;;;;;32.38;17.38;;;11.60;25.40;;;;;;4997336;28;20215;-73
2022/03/26 08:53:59;;;;;;;30.50;17.30;;;11.70;25.70;;;;;;4997782;28;20646;-73
2022/03/26 08:56:26;;;;;;;29.25;17.30;;;11.90;25.00;;;;;;4998431;28;20232;-73
2022/03/26 08:58:53;;;;;;;27.70;16.77;;;11.70;24.90;;;;;;4999127;28;20232;-72
2022/03/26 09:01:20;;;;;;;27.27;17.55;;;11.70;25.10;;;;;;5000399;28;20197;-73
2022/03/26 09:03:50;;;;;;;30.88;17.98;;;12.00;24.70;;;;;;5007275;28;20294;-72
2022/03/26 09:06:17;;;;;;;28.33;17.75;;;12.00;24.40;;;;;;5006716;28;20236;-74
2022/03/26 09:08:44;;;;;;;29.05;17.95;;;12.10;24.30;;;;;;5011892;28;20223;-72
2022/03/26 09:11:13;;;;;;;34.15;18.15;;;12.30;24.00;;;;;;5012256;28;20280;-74
2022/03/26 09:13:40;;;;;;;28.52;17.60;;;12.30;23.90;;;;;;5011053;28;20208;-72
2022/03/26 09:16:06;;;;;;;30.10;18.15;;;12.40;23.80;;;;;;5013125;28;20232;-73
2022/03/26 09:18:34;;;;;;;32.75;17.23;;;12.30;23.30;;;;;;5001987;28;20251;-74
2022/03/26 09:21:01;;;;;;;29.98;18.20;;;12.40;24.00;;;;;;5001086;28;20235;-74
2022/03/26 09:23:28;;;;;;;31.52;18.83;;;12.50;23.50;;;;;;5001782;28;20308;-72
2022/03/26 09:25:55;;;;;;;31.52;17.73;;;12.50;23.80;;;;;;5000663;28;20283;-72
2022/03/26 09:28:24;;;;;;;34.55;19.58;;;12.60;23.60;;;;;;4999822;28;20763;-73
2022/03/26 09:30:51;;;;;;;34.15;18.80;;;12.80;23.70;;;;;;4999364;28;20254;-72
2022/03/26 09:33:18;;;;;;;31.88;19.08;;;12.80;24.30;;;;;;4997588;28;20262;-72
2022/03/26 09:35:45;;;;;;;29.38;18.88;;;13.00;23.80;;;;;;4995550;28;20681;-72
2022/03/26 09:38:12;;;;;;;33.55;20.02;;;13.30;23.40;;;;;;4997257;28;20228;-72
2022/03/26 09:40:41;;;;;;;31.83;17.92;;;13.40;23.20;;;;;;4995792;28;20264;-73
2022/03/26 09:43:09;;;;;;;31.25;20.15;;;13.40;23.20;;;;;;4995672;28;20212;-73
2022/03/26 09:45:37;;;;;;;33.72;20.52;;;13.60;22.60;;;;;;4994829;28;20220;-74
2022/03/26 09:48:06;;;;;;;32.20;19.37;;;13.70;22.60;;;;;;4995910;28;20215;-73
2022/03/26 09:50:34;;;;;;;34.92;21.05;;;13.90;22.50;;;;;;4995813;28;20494;-73
2022/03/26 09:53:01;;;;;;;34.80;19.40;;;14.00;22.30;;;;;;4995137;28;20204;-73
2022/03/26 09:55:28;;;;;;;32.63;19.37;;;14.20;22.10;;;;;;4995065;28;20546;-72
2022/03/26 09:57:55;;;;;;;32.07;19.87;;;14.30;22.10;;;;;;4996141;28;20916;-72
2022/03/26 10:00:22;;;;;;;38.30;21.03;;;14.40;21.20;;;;;;4995865;28;20480;-74
2022/03/26 10:02:51;;;;;;;33.47;19.93;;;14.20;21.90;;;;;;5000347;28;20466;-73
2022/03/26 10:05:21;;;;;;;39.63;22.37;;;14.40;21.50;;;;;;5000652;28;20494;-74
2022/03/26 10:07:49;;;;;;;38.00;22.03;;;14.50;20.80;;;;;;5000662;28;20479;-74
2022/03/26 10:10:24;;;;;;;33.90;20.47;;;14.60;20.30;;;;;;4997124;28;21050;-73
2022/03/26 10:12:52;;;;;;;32.67;19.97;;;14.70;20.80;;;;;;4996257;28;20433;-74
2022/03/26 10:15:19;;;;;;;37.07;21.60;;;14.80;21.10;;;;;;4995872;28;20514;-74
2022/03/26 10:17:47;;;;;;;32.93;20.80;;;15.00;20.50;;;;;;4996599;28;20452;-75
2022/03/26 10:20:16;;;;;;;38.40;21.17;;;15.10;20.30;;;;;;4996446;28;20458;-73
2022/03/26 10:22:44;;;;;;;34.00;19.90;;;14.90;20.90;;;;;;4997707;28;20867;-74
2022/03/26 10:25:13;;;;;;;33.37;21.20;;;15.00;20.40;;;;;;5005330;28;20503;-75
2022/03/26 10:27:42;;;;;;;33.87;21.20;;;15.20;20.20;;;;;;4999361;28;20964;-73
2022/03/26 10:30:10;;;;;;;33.63;21.53;;;15.10;20.20;;;;;;4995609;28;20974;-73
2022/03/26 10:32:41;;;;;;;35.70;21.67;;;15.40;20.00;;;;;;4996595;28;20448;-74
2022/03/26 10:35:13;;;;;;;38.90;21.30;;;15.70;19.70;;;;;;4995979;28;20426;-78
2022/03/26 10:37:56;;;;;;;33.40;21.63;;;15.80;19.50;;;;;;4995563;28;20467;-74
2022/03/26 10:40:31;;;;;;;35.73;21.93;;;15.90;18.60;;;;;;4995982;28;20562;-75
2022/03/26 10:43:10;;;;;;;41.20;22.27;;;15.90;18.90;;;;;;4995221;28;20473;-75
2022/03/26 10:45:46;;;;;;;34.20;22.30;;;15.90;19.30;;;;;;4994639;28;20567;-73
2022/03/26 10:48:12;;;;;;;39.73;22.73;;;16.00;18.70;;;;;;4994976;28;20791;-74
2022/03/26 10:50:40;;;;;;;33.60;21.60;;;15.60;19.50;;;;;;4995551;28;21026;-75
2022/03/26 10:53:11;;;;;;;36.20;21.70;;;15.70;19.40;;;;;;4996479;28;20498;-73
2022/03/26 10:55:40;;;;;;;35.13;22.73;;;15.80;19.00;;;;;;4994250;28;20462;-73
2022/03/26 10:58:08;;;;;;;36.17;21.63;;;16.00;19.10;;;;;;4994584;28;20438;-76
2022/03/26 11:00:36;;;;;;;37.17;23.37;;;16.30;18.00;;;;;;4994202;28;20574;-75
2022/03/26 11:03:03;;;;;;;31.37;20.90;;;16.40;18.10;;;;;;4994053;28;20496;-74
2022/03/26 11:05:31;;;;;;;36.77;22.60;;;16.50;18.10;;;;;;4994130;28;20618;-74
2022/03/26 11:07:59;;;;;;;38.20;22.70;;;16.40;18.10;;;;;;4994466;28;20460;-73
2022/03/26 11:10:31;;;;;;;38.73;24.10;;;16.50;18.10;;;;;;4993733;28;20831;-74
2022/03/26 11:13:00;;;;;;;34.73;22.53;;;16.60;18.20;;;;;;4994023;28;20435;-74
2022/03/26 11:15:31;;;;;;;32.93;21.60;;;16.40;18.10;;;;;;4994098;28;20846;-76
2022/03/26 11:18:17;;;;;;;37.00;22.67;;;16.50;18.10;;;;;;4994327;28;20906;-75
2022/03/26 11:21:12;;;;;;;36.07;21.40;;;16.60;18.80;;;;;;4994357;28;20491;-75
2022/03/26 11:24:01;;;;;;;33.97;22.03;;;16.80;18.30;;;;;;4994205;28;20903;-74
2022/03/26 11:26:45;;;;;;;37.03;23.40;;;17.00;18.50;;;;;;4993986;28;20483;-75
2022/03/26 11:29:28;;;;;;;37.90;23.23;;;16.70;18.30;;;;;;4994201;28;20443;-76
2022/03/26 11:31:58;;;;;;;39.53;23.20;;;17.10;18.10;;;;;;4994429;28;20564;-76
2022/03/26 11:34:25;;;;;;;36.07;22.87;;;16.90;18.30;;;;;;4994790;28;20462;-74
2022/03/26 11:36:52;;;;;;;33.97;21.17;;;17.00;16.90;;;;;;4994549;28;20473;-76
2022/03/26 11:39:21;;;;;;;36.67;23.20;;;17.30;16.50;;;;;;4994022;28;20991;-75
2022/03/26 11:41:49;;;;;;;34.13;21.30;;;17.10;15.90;;;;;;4994574;28;20516;-75
2022/03/26 11:44:17;;;;;;;34.10;22.27;;;17.10;16.50;;;;;;4994208;28;20467;-75
2022/03/26 11:52:23;;;;;;;34.00;20.60;;;17.50;15.40;;;;;;4994331;28;20547;-75
2022/03/26 11:54:55;;;;;;;42.07;22.73;;;17.40;15.30;;;;;;4994355;28;20525;-76
2022/03/26 11:57:24;;;;;;;32.70;20.60;;;17.60;14.80;;;;;;4993040;28;20430;-75
2022/03/26 11:59:52;;;;;;;29.70;19.47;;;17.70;14.50;;;;;;5004742;28;20480;-75
2022/03/26 12:02:21;;;;;;;33.03;18.80;;;17.50;14.70;;;;;;5002759;28;20549;-74
2022/03/26 12:06:35;;;;;;;29.87;19.40;;;17.60;14.40;;;;;;5010008;28;20429;-75
2022/03/26 12:07:46;;;;;;;31.00;18.87;;;17.50;14.40;;;;;;4994769;28;20451;-76
2022/03/26 12:10:18;;;;;;;31.70;19.50;;;17.60;14.60;;;;;;4996263;28;20490;-74
2022/03/26 12:12:51;;;;;;;29.53;18.50;;;17.80;14.20;;;;;;5018094;28;20526;-74
2022/03/26 12:15:39;;;;;;;29.90;18.80;;;17.50;13.50;;;;;;4999615;28;20430;-73
2022/03/26 12:18:14;;;;;;;31.33;18.90;;;17.60;13.50;;;;;;5008434;28;20471;-73
2022/03/26 12:20:43;;;;;;;27.43;18.10;;;17.80;13.10;;;;;;5017524;28;20494;-75
2022/03/26 12:23:13;;;;;;;28.40;18.90;;;17.80;12.90;;;;;;5020532;28;20442;-72
2022/03/26 12:25:46;;;;;;;31.40;19.80;;;17.80;13.20;;;;;;5024008;28;20478;-73
2022/03/26 12:28:16;;;;;;;27.60;18.60;;;17.60;13.50;;;;;;5019820;28;20487;-73
2022/03/26 12:30:57;;;;;;;27.43;18.47;;;17.70;13.30;;;;;;5034293;28;20466;-73
2022/03/26 12:33:50;;;;;;;29.27;20.20;;;17.70;12.70;;;;;;5019389;28;20421;-75
2022/03/26 12:36:19;;;;;;;35.20;19.23;;;17.90;13.30;;;;;;5009745;28;20471;-74
2022/03/26 12:38:47;;;;;;;28.43;18.17;;;18.00;12.80;;;;;;5028853;28;20429;-75
2022/03/26 12:41:15;;;;;;;28.10;18.03;;;18.10;12.50;;;;;;5032550;28;20475;-74
2022/03/26 12:43:53;;;;;;;31.27;19.30;;;18.30;11.90;;;;;;5021578;28;20569;-74